sensor_id;sensor_type;location;lat;lon;timestamp;temperature;humidity
38020;DHT22;23829;51.350;17.286;2023-04-03T00:00:31;18.70;30.10
38020;DHT22;23829;51.350;17.286;2023-04-03T00:03:17;17.90;31.10
38020;DHT22;23829;51.350;17.286;2023-04-03T00:05:44;18.10;31.60
38020;DHT22;23829;51.350;17.286;2023-04-03T00:08:11;18.50;30.70
38020;DHT22;23829;51.350;17.286;2023-04-03T00:10:37;18.30;31.20
38020;DHT22;23829;51.350;17.286;2023-04-03T00:13:05;18.20;30.90
38020;DHT22;23829;51.350;17.286;2023-04-03T00:15:32;18.00;31.50
38020;DHT22;23829;51.350;17.286;2023-04-03T00:17:58;18.40;31.30
38020;DHT22;23829;51.350;17.286;2023-04-03T00:20:25;18.40;30.60
38020;DHT22;23829;51.350;17.286;2023-04-03T00:22:53;18.60;30.70
38020;DHT22;23829;51.350;17.286;2023-04-03T00:25:20;18.30;30.80
38020;DHT22;23829;51.350;17.286;2023-04-03T00:27:46;18.50;30.80
38020;DHT22;23829;51.350;17.286;2023-04-03T00:30:18;18.20;30.80
38020;DHT22;23829;51.350;17.286;2023-04-03T00:32:44;18.00;31.20
38020;DHT22;23829;51.350;17.286;2023-04-03T00:35:11;17.90;31.50
38020;DHT22;23829;51.350;17.286;2023-04-03T00:37:37;18.10;31.50
38020;DHT22;23829;51.350;17.286;2023-04-03T00:40:04;18.20;31.10
38020;DHT22;23829;51.350;17.286;2023-04-03T00:42:31;18.40;30.90
38020;DHT22;23829;51.350;17.286;2023-04-03T00:47:27;18.30;30.90
38020;DHT22;23829;51.350;17.286;2023-04-03T00:49:54;17.70;31.60
38020;DHT22;23829;51.350;17.286;2023-04-03T00:52:23;17.60;32.70
38020;DHT22;23829;51.350;17.286;2023-04-03T00:54:54;18.00;31.80
38020;DHT22;23829;51.350;17.286;2023-04-03T00:57:22;17.90;31.80
38020;DHT22;23829;51.350;17.286;2023-04-03T00:59:53;18.40;31.10
38020;DHT22;23829;51.350;17.286;2023-04-03T01:02:21;18.40;31.20
38020;DHT22;23829;51.350;17.286;2023-04-03T01:04:48;18.30;31.00
38020;DHT22;23829;51.350;17.286;2023-04-03T01:07:18;18.40;31.00
38020;DHT22;23829;51.350;17.286;2023-04-03T01:09:48;18.10;31.20
38020;DHT22;23829;51.350;17.286;2023-04-03T01:14:50;18.40;30.90
38020;DHT22;23829;51.350;17.286;2023-04-03T01:25:54;18.60;30.90
38020;DHT22;23829;51.350;17.286;2023-04-03T01:28:35;18.80;30.70
38020;DHT22;23829;51.350;17.286;2023-04-03T01:33:45;18.40;31.00
38020;DHT22;23829;51.350;17.286;2023-04-03T01:36:31;18.40;31.00
38020;DHT22;23829;51.350;17.286;2023-04-03T01:38:59;18.40;30.80
38020;DHT22;23829;51.350;17.286;2023-04-03T01:41:27;18.60;30.70
38020;DHT22;23829;51.350;17.286;2023-04-03T01:44:00;18.80;30.40
38020;DHT22;23829;51.350;17.286;2023-04-03T01:46:26;19.00;30.00
38020;DHT22;23829;51.350;17.286;2023-04-03T01:48:53;19.00;30.10
38020;DHT22;23829;51.350;17.286;2023-04-03T01:51:19;19.00;29.90
38020;DHT22;23829;51.350;17.286;2023-04-03T01:53:45;18.70;30.00
38020;DHT22;23829;51.350;17.286;2023-04-03T01:56:13;18.40;30.50
38020;DHT22;23829;51.350;17.286;2023-04-03T01:58:39;18.40;30.50
38020;DHT22;23829;51.350;17.286;2023-04-03T02:01:05;18.50;30.60
38020;DHT22;23829;51.350;17.286;2023-04-03T02:03:32;18.40;30.50
38020;DHT22;23829;51.350;17.286;2023-04-03T02:05:59;18.20;30.80
38020;DHT22;23829;51.350;17.286;2023-04-03T02:08:26;18.50;30.80
38020;DHT22;23829;51.350;17.286;2023-04-03T02:10:52;18.50;30.40
38020;DHT22;23829;51.350;17.286;2023-04-03T02:13:19;18.10;30.90
38020;DHT22;23829;51.350;17.286;2023-04-03T02:15:45;18.20;31.00
38020;DHT22;23829;51.350;17.286;2023-04-03T02:18:12;18.30;30.80
38020;DHT22;23829;51.350;17.286;2023-04-03T02:20:39;18.30;30.80
38020;DHT22;23829;51.350;17.286;2023-04-03T02:23:06;18.00;31.00
38020;DHT22;23829;51.350;17.286;2023-04-03T02:25:33;17.90;31.30
38020;DHT22;23829;51.350;17.286;2023-04-03T02:28:00;18.00;31.50
38020;DHT22;23829;51.350;17.286;2023-04-03T02:30:26;18.20;30.90
38020;DHT22;23829;51.350;17.286;2023-04-03T02:32:53;18.50;30.50
38020;DHT22;23829;51.350;17.286;2023-04-03T02:35:20;18.60;30.20
38020;DHT22;23829;51.350;17.286;2023-04-03T02:37:47;18.70;30.10
38020;DHT22;23829;51.350;17.286;2023-04-03T02:40:14;18.50;30.30
38020;DHT22;23829;51.350;17.286;2023-04-03T02:42:41;18.40;30.50
38020;DHT22;23829;51.350;17.286;2023-04-03T02:45:08;18.40;30.60
38020;DHT22;23829;51.350;17.286;2023-04-03T02:47:34;18.30;30.50
38020;DHT22;23829;51.350;17.286;2023-04-03T02:50:01;18.60;30.30
38020;DHT22;23829;51.350;17.286;2023-04-03T02:52:27;18.80;30.10
38020;DHT22;23829;51.350;17.286;2023-04-03T02:54:57;18.90;30.00
38020;DHT22;23829;51.350;17.286;2023-04-03T02:57:23;18.80;30.00
38020;DHT22;23829;51.350;17.286;2023-04-03T02:59:50;18.70;29.90
38020;DHT22;23829;51.350;17.286;2023-04-03T03:02:16;18.70;30.00
38020;DHT22;23829;51.350;17.286;2023-04-03T03:04:43;18.80;30.00
38020;DHT22;23829;51.350;17.286;2023-04-03T03:07:09;18.80;30.00
38020;DHT22;23829;51.350;17.286;2023-04-03T03:09:36;18.70;30.00
38020;DHT22;23829;51.350;17.286;2023-04-03T03:12:04;18.80;30.00
38020;DHT22;23829;51.350;17.286;2023-04-03T03:14:31;18.70;30.00
38020;DHT22;23829;51.350;17.286;2023-04-03T03:16:57;18.50;30.30
38020;DHT22;23829;51.350;17.286;2023-04-03T03:19:24;18.60;30.10
38020;DHT22;23829;51.350;17.286;2023-04-03T03:21:51;18.60;29.90
38020;DHT22;23829;51.350;17.286;2023-04-03T03:24:18;18.50;30.20
38020;DHT22;23829;51.350;17.286;2023-04-03T03:26:44;18.60;30.00
38020;DHT22;23829;51.350;17.286;2023-04-03T03:29:12;18.60;30.10
38020;DHT22;23829;51.350;17.286;2023-04-03T03:31:38;18.50;30.20
38020;DHT22;23829;51.350;17.286;2023-04-03T03:34:07;18.50;30.10
38020;DHT22;23829;51.350;17.286;2023-04-03T03:36:33;18.60;30.20
38020;DHT22;23829;51.350;17.286;2023-04-03T03:39:00;18.50;30.30
38020;DHT22;23829;51.350;17.286;2023-04-03T03:41:26;18.40;30.20
38020;DHT22;23829;51.350;17.286;2023-04-03T03:43:53;18.40;30.30
38020;DHT22;23829;51.350;17.286;2023-04-03T03:46:20;18.30;30.30
38020;DHT22;23829;51.350;17.286;2023-04-03T03:48:46;18.30;30.30
38020;DHT22;23829;51.350;17.286;2023-04-03T03:51:13;18.20;30.50
38020;DHT22;23829;51.350;17.286;2023-04-03T03:53:39;18.10;30.90
38020;DHT22;23829;51.350;17.286;2023-04-03T03:56:10;18.00;30.90
38020;DHT22;23829;51.350;17.286;2023-04-03T03:58:39;17.70;31.20
38020;DHT22;23829;51.350;17.286;2023-04-03T04:01:07;17.80;31.20
38020;DHT22;23829;51.350;17.286;2023-04-03T04:03:39;18.10;31.00
38020;DHT22;23829;51.350;17.286;2023-04-03T04:06:07;17.90;31.00
38020;DHT22;23829;51.350;17.286;2023-04-03T04:08:34;17.90;31.20
38020;DHT22;23829;51.350;17.286;2023-04-03T04:11:01;18.00;31.00
38020;DHT22;23829;51.350;17.286;2023-04-03T04:13:28;17.60;31.40
38020;DHT22;23829;51.350;17.286;2023-04-03T04:15:55;17.60;31.60
38020;DHT22;23829;51.350;17.286;2023-04-03T04:18:22;17.70;31.70
38020;DHT22;23829;51.350;17.286;2023-04-03T04:20:50;17.50;31.50
38020;DHT22;23829;51.350;17.286;2023-04-03T04:23:19;17.70;31.70
38020;DHT22;23829;51.350;17.286;2023-04-03T04:25:48;17.20;32.10
38020;DHT22;23829;51.350;17.286;2023-04-03T04:28:15;17.60;32.00
38020;DHT22;23829;51.350;17.286;2023-04-03T04:30:42;17.90;31.50
38020;DHT22;23829;51.350;17.286;2023-04-03T04:33:09;17.20;32.00
38020;DHT22;23829;51.350;17.286;2023-04-03T04:35:36;17.00;32.40
38020;DHT22;23829;51.350;17.286;2023-04-03T04:38:04;17.20;32.50
38020;DHT22;23829;51.350;17.286;2023-04-03T04:40:30;17.30;32.10
38020;DHT22;23829;51.350;17.286;2023-04-03T04:42:59;17.50;32.20
38020;DHT22;23829;51.350;17.286;2023-04-03T04:45:25;17.00;32.50
38020;DHT22;23829;51.350;17.286;2023-04-03T04:47:55;16.50;33.20
38020;DHT22;23829;51.350;17.286;2023-04-03T04:50:23;16.70;33.40
38020;DHT22;23829;51.350;17.286;2023-04-03T04:52:51;17.00;33.10
38020;DHT22;23829;51.350;17.286;2023-04-03T04:55:17;17.40;32.40
38020;DHT22;23829;51.350;17.286;2023-04-03T04:57:43;17.40;32.40
38020;DHT22;23829;51.350;17.286;2023-04-03T05:00:10;17.60;32.10
38020;DHT22;23829;51.350;17.286;2023-04-03T05:02:37;17.50;32.00
38020;DHT22;23829;51.350;17.286;2023-04-03T05:05:04;17.60;32.00
38020;DHT22;23829;51.350;17.286;2023-04-03T05:07:31;17.80;32.40
38020;DHT22;23829;51.350;17.286;2023-04-03T05:09:58;17.20;33.00
38020;DHT22;23829;51.350;17.286;2023-04-03T05:12:25;17.10;32.70
38020;DHT22;23829;51.350;17.286;2023-04-03T05:14:56;16.40;33.70
38020;DHT22;23829;51.350;17.286;2023-04-03T05:17:24;16.40;34.10
38020;DHT22;23829;51.350;17.286;2023-04-03T05:19:53;16.70;33.90
38020;DHT22;23829;51.350;17.286;2023-04-03T05:22:22;16.70;33.80
38020;DHT22;23829;51.350;17.286;2023-04-03T05:24:50;16.40;34.40
38020;DHT22;23829;51.350;17.286;2023-04-03T05:27:18;17.10;33.70
38020;DHT22;23829;51.350;17.286;2023-04-03T05:29:52;16.60;34.00
38020;DHT22;23829;51.350;17.286;2023-04-03T05:32:22;17.10;33.90
38020;DHT22;23829;51.350;17.286;2023-04-03T05:34:54;17.40;33.00
38020;DHT22;23829;51.350;17.286;2023-04-03T05:37:21;17.40;33.20
38020;DHT22;23829;51.350;17.286;2023-04-03T05:39:47;17.60;32.90
38020;DHT22;23829;51.350;17.286;2023-04-03T05:42:16;17.30;33.40
38020;DHT22;23829;51.350;17.286;2023-04-03T05:44:43;17.40;32.90
38020;DHT22;23829;51.350;17.286;2023-04-03T05:47:10;16.40;34.50
38020;DHT22;23829;51.350;17.286;2023-04-03T05:49:36;16.80;34.30
38020;DHT22;23829;51.350;17.286;2023-04-03T05:52:20;16.70;34.50
38020;DHT22;23829;51.350;17.286;2023-04-03T05:54:47;17.10;34.10
38020;DHT22;23829;51.350;17.286;2023-04-03T05:57:19;17.30;33.60
38020;DHT22;23829;51.350;17.286;2023-04-03T05:59:46;17.40;33.10
38020;DHT22;23829;51.350;17.286;2023-04-03T06:02:20;18.10;32.30
38020;DHT22;23829;51.350;17.286;2023-04-03T06:04:48;17.80;32.50
38020;DHT22;23829;51.350;17.286;2023-04-03T06:07:17;18.20;32.30
38020;DHT22;23829;51.350;17.286;2023-04-03T06:09:44;17.80;32.30
38020;DHT22;23829;51.350;17.286;2023-04-03T06:12:11;17.50;33.00
38020;DHT22;23829;51.350;17.286;2023-04-03T06:14:38;17.70;33.00
38020;DHT22;23829;51.350;17.286;2023-04-03T06:17:05;17.80;32.50
38020;DHT22;23829;51.350;17.286;2023-04-03T06:19:32;17.70;32.60
38020;DHT22;23829;51.350;17.286;2023-04-03T06:21:59;17.90;32.70
38020;DHT22;23829;51.350;17.286;2023-04-03T06:24:26;17.60;32.80
38020;DHT22;23829;51.350;17.286;2023-04-03T06:26:53;17.30;33.00
38020;DHT22;23829;51.350;17.286;2023-04-03T06:29:20;17.40;33.20
38020;DHT22;23829;51.350;17.286;2023-04-03T06:31:47;17.00;33.60
38020;DHT22;23829;51.350;17.286;2023-04-03T06:34:13;17.00;34.10
38020;DHT22;23829;51.350;17.286;2023-04-03T06:36:41;16.80;33.90
38020;DHT22;23829;51.350;17.286;2023-04-03T06:39:12;16.70;34.60
38020;DHT22;23829;51.350;17.286;2023-04-03T06:41:38;16.60;34.00
38020;DHT22;23829;51.350;17.286;2023-04-03T06:44:05;16.90;33.60
38020;DHT22;23829;51.350;17.286;2023-04-03T06:46:32;16.60;33.80
38020;DHT22;23829;51.350;17.286;2023-04-03T06:48:58;16.50;33.80
38020;DHT22;23829;51.350;17.286;2023-04-03T06:51:27;16.10;34.70
38020;DHT22;23829;51.350;17.286;2023-04-03T06:53:56;15.90;35.10
38020;DHT22;23829;51.350;17.286;2023-04-03T06:56:23;16.30;34.90
38020;DHT22;23829;51.350;17.286;2023-04-03T06:58:52;16.00;34.60
38020;DHT22;23829;51.350;17.286;2023-04-03T07:01:21;16.10;35.00
38020;DHT22;23829;51.350;17.286;2023-04-03T07:03:48;16.60;34.00
38020;DHT22;23829;51.350;17.286;2023-04-03T07:06:15;17.70;32.50
38020;DHT22;23829;51.350;17.286;2023-04-03T07:08:43;17.00;32.40
38020;DHT22;23829;51.350;17.286;2023-04-03T07:11:10;16.70;33.40
38020;DHT22;23829;51.350;17.286;2023-04-03T07:13:38;17.20;33.90
38020;DHT22;23829;51.350;17.286;2023-04-03T07:16:05;17.90;32.10
38020;DHT22;23829;51.350;17.286;2023-04-03T07:18:32;18.50;31.30
38020;DHT22;23829;51.350;17.286;2023-04-03T07:20:59;18.50;31.20
38020;DHT22;23829;51.350;17.286;2023-04-03T07:23:25;18.20;32.00
38020;DHT22;23829;51.350;17.286;2023-04-03T07:25:52;18.20;31.70
38020;DHT22;23829;51.350;17.286;2023-04-03T07:28:21;18.20;31.20
38020;DHT22;23829;51.350;17.286;2023-04-03T07:30:50;18.50;31.30
38020;DHT22;23829;51.350;17.286;2023-04-03T07:33:18;18.90;30.40
38020;DHT22;23829;51.350;17.286;2023-04-03T07:35:45;19.40;29.60
38020;DHT22;23829;51.350;17.286;2023-04-03T07:38:12;18.80;29.90
38020;DHT22;23829;51.350;17.286;2023-04-03T07:40:39;18.10;30.60
38020;DHT22;23829;51.350;17.286;2023-04-03T07:43:06;18.40;30.90
38020;DHT22;23829;51.350;17.286;2023-04-03T07:45:34;19.00;29.90
38020;DHT22;23829;51.350;17.286;2023-04-03T07:48:02;18.40;30.60
38020;DHT22;23829;51.350;17.286;2023-04-03T07:50:28;19.20;29.60
38020;DHT22;23829;51.350;17.286;2023-04-03T07:52:56;18.10;30.00
38020;DHT22;23829;51.350;17.286;2023-04-03T07:55:24;18.00;30.60
38020;DHT22;23829;51.350;17.286;2023-04-03T07:57:51;17.90;29.80
38020;DHT22;23829;51.350;17.286;2023-04-03T08:00:17;16.70;31.30
38020;DHT22;23829;51.350;17.286;2023-04-03T08:02:44;17.00;31.40
38020;DHT22;23829;51.350;17.286;2023-04-03T08:05:20;17.20;31.30
38020;DHT22;23829;51.350;17.286;2023-04-03T08:07:47;16.90;32.10
38020;DHT22;23829;51.350;17.286;2023-04-03T08:10:14;16.90;31.10
38020;DHT22;23829;51.350;17.286;2023-04-03T08:12:41;17.10;31.30
38020;DHT22;23829;51.350;17.286;2023-04-03T08:15:08;17.10;31.60
38020;DHT22;23829;51.350;17.286;2023-04-03T08:17:35;18.10;30.30
38020;DHT22;23829;51.350;17.286;2023-04-03T08:20:04;18.30;30.00
38020;DHT22;23829;51.350;17.286;2023-04-03T08:22:31;17.90;29.80
38020;DHT22;23829;51.350;17.286;2023-04-03T08:24:57;18.30;30.00
38020;DHT22;23829;51.350;17.286;2023-04-03T08:27:24;17.90;29.90
38020;DHT22;23829;51.350;17.286;2023-04-03T08:29:50;18.40;29.60
38020;DHT22;23829;51.350;17.286;2023-04-03T08:32:17;18.40;29.90
38020;DHT22;23829;51.350;17.286;2023-04-03T08:34:44;18.40;29.80
38020;DHT22;23829;51.350;17.286;2023-04-03T08:37:10;18.30;29.40
38020;DHT22;23829;51.350;17.286;2023-04-03T08:39:37;19.10;29.10
38020;DHT22;23829;51.350;17.286;2023-04-03T08:42:34;18.90;28.20
38020;DHT22;23829;51.350;17.286;2023-04-03T08:48:11;18.60;29.00
38020;DHT22;23829;51.350;17.286;2023-04-03T08:50:42;18.80;29.00
38020;DHT22;23829;51.350;17.286;2023-04-03T08:53:12;18.50;28.40
38020;DHT22;23829;51.350;17.286;2023-04-03T08:55:43;18.00;29.30
38020;DHT22;23829;51.350;17.286;2023-04-03T08:58:24;18.90;28.90
38020;DHT22;23829;51.350;17.286;2023-04-03T09:00:59;18.60;29.00
38020;DHT22;23829;51.350;17.286;2023-04-03T09:03:32;19.20;28.80
38020;DHT22;23829;51.350;17.286;2023-04-03T09:06:03;18.90;28.90
38020;DHT22;23829;51.350;17.286;2023-04-03T09:08:34;18.90;28.30
38020;DHT22;23829;51.350;17.286;2023-04-03T09:11:19;18.50;26.90
38020;DHT22;23829;51.350;17.286;2023-04-03T09:13:57;18.90;26.90
38020;DHT22;23829;51.350;17.286;2023-04-03T09:16:28;17.90;25.90
38020;DHT22;23829;51.350;17.286;2023-04-03T09:21:39;17.40;27.40
38020;DHT22;23829;51.350;17.286;2023-04-03T09:24:12;17.80;28.90
38020;DHT22;23829;51.350;17.286;2023-04-03T09:27:26;18.40;28.00
38020;DHT22;23829;51.350;17.286;2023-04-03T09:29:39;18.70;26.50
38020;DHT22;23829;51.350;17.286;2023-04-03T09:32:25;18.70;26.10
38020;DHT22;23829;51.350;17.286;2023-04-03T09:34:54;18.90;25.90
38020;DHT22;23829;51.350;17.286;2023-04-03T09:37:38;18.50;26.90
38020;DHT22;23829;51.350;17.286;2023-04-03T09:40:06;18.80;27.20
38020;DHT22;23829;51.350;17.286;2023-04-03T09:42:32;18.70;26.30
38020;DHT22;23829;51.350;17.286;2023-04-03T09:45:01;18.90;26.30
38020;DHT22;23829;51.350;17.286;2023-04-03T09:47:30;19.20;25.60
38020;DHT22;23829;51.350;17.286;2023-04-03T09:50:21;19.10;25.30
38020;DHT22;23829;51.350;17.286;2023-04-03T09:52:50;18.50;26.40
38020;DHT22;23829;51.350;17.286;2023-04-03T09:55:27;17.90;27.70
38020;DHT22;23829;51.350;17.286;2023-04-03T09:58:03;18.40;27.70
38020;DHT22;23829;51.350;17.286;2023-04-03T10:00:36;18.70;27.40
38020;DHT22;23829;51.350;17.286;2023-04-03T10:03:03;18.60;26.60
38020;DHT22;23829;51.350;17.286;2023-04-03T10:10:45;18.30;26.80
38020;DHT22;23829;51.350;17.286;2023-04-03T10:13:15;18.50;26.80
38020;DHT22;23829;51.350;17.286;2023-04-03T10:15:56;18.60;25.90
38020;DHT22;23829;51.350;17.286;2023-04-03T10:24:23;18.00;26.50
38020;DHT22;23829;51.350;17.286;2023-04-03T10:32:52;18.90;25.30
38020;DHT22;23829;51.350;17.286;2023-04-03T10:35:44;18.80;24.80
38020;DHT22;23829;51.350;17.286;2023-04-03T10:47:21;19.50;24.80
38020;DHT22;23829;51.350;17.286;2023-04-03T10:50:15;18.80;26.00
38020;DHT22;23829;51.350;17.286;2023-04-03T10:52:57;19.00;25.60
38020;DHT22;23829;51.350;17.286;2023-04-03T10:57:59;19.10;24.60
38020;DHT22;23829;51.350;17.286;2023-04-03T11:00:39;18.80;24.40
38020;DHT22;23829;51.350;17.286;2023-04-03T11:05:53;20.00;24.20
38020;DHT22;23829;51.350;17.286;2023-04-03T11:08:33;19.20;24.60
38020;DHT22;23829;51.350;17.286;2023-04-03T11:11:09;18.50;24.70
38020;DHT22;23829;51.350;17.286;2023-04-03T11:13:46;19.00;24.20
38020;DHT22;23829;51.350;17.286;2023-04-03T11:16:21;19.40;24.40
38020;DHT22;23829;51.350;17.286;2023-04-03T11:19:20;19.30;24.80
38020;DHT22;23829;51.350;17.286;2023-04-03T11:22:24;19.90;23.50
38020;DHT22;23829;51.350;17.286;2023-04-03T11:25:18;19.50;24.20
38020;DHT22;23829;51.350;17.286;2023-04-03T11:27:59;19.70;23.60
38020;DHT22;23829;51.350;17.286;2023-04-03T11:35:35;19.70;24.70
38020;DHT22;23829;51.350;17.286;2023-04-03T11:38:04;19.20;24.30
38020;DHT22;23829;51.350;17.286;2023-04-03T11:40:34;19.10;23.80
38020;DHT22;23829;51.350;17.286;2023-04-03T11:43:16;18.90;23.60
38020;DHT22;23829;51.350;17.286;2023-04-03T11:46:01;18.60;24.30
38020;DHT22;23829;51.350;17.286;2023-04-03T11:51:46;20.30;23.60
38020;DHT22;23829;51.350;17.286;2023-04-03T11:53:48;20.00;24.30
38020;DHT22;23829;51.350;17.286;2023-04-03T12:01:54;18.20;24.90
38020;DHT22;23829;51.350;17.286;2023-04-03T12:04:26;19.00;25.00
38020;DHT22;23829;51.350;17.286;2023-04-03T12:07:12;20.00;23.90
38020;DHT22;23829;51.350;17.286;2023-04-03T12:14:52;19.20;24.30
38020;DHT22;23829;51.350;17.286;2023-04-03T12:17:26;18.60;25.50
38020;DHT22;23829;51.350;17.286;2023-04-03T12:19:53;19.40;24.80
38020;DHT22;23829;51.350;17.286;2023-04-03T12:22:21;19.60;25.50
38020;DHT22;23829;51.350;17.286;2023-04-03T12:24:52;19.70;24.50
38020;DHT22;23829;51.350;17.286;2023-04-03T12:27:36;20.10;22.60
38020;DHT22;23829;51.350;17.286;2023-04-03T12:30:29;19.40;23.20
38020;DHT22;23829;51.350;17.286;2023-04-03T12:33:28;18.90;24.20
38020;DHT22;23829;51.350;17.286;2023-04-03T12:36:10;18.40;24.20
38020;DHT22;23829;51.350;17.286;2023-04-03T12:38:53;18.30;23.90
38020;DHT22;23829;51.350;17.286;2023-04-03T12:47:25;19.20;24.30
38020;DHT22;23829;51.350;17.286;2023-04-03T12:49:52;20.10;23.80
38020;DHT22;23829;51.350;17.286;2023-04-03T12:52:29;19.20;24.30
38020;DHT22;23829;51.350;17.286;2023-04-03T12:54:56;19.10;24.20
38020;DHT22;23829;51.350;17.286;2023-04-03T12:57:26;19.80;24.50
38020;DHT22;23829;51.350;17.286;2023-04-03T12:59:54;19.80;23.40
38020;DHT22;23829;51.350;17.286;2023-04-03T13:02:24;20.10;23.40
38020;DHT22;23829;51.350;17.286;2023-04-03T13:04:53;20.00;23.20
38020;DHT22;23829;51.350;17.286;2023-04-03T13:07:35;20.20;22.90
38020;DHT22;23829;51.350;17.286;2023-04-03T13:12:52;19.40;24.40
38020;DHT22;23829;51.350;17.286;2023-04-03T13:17:49;18.60;25.20
38020;DHT22;23829;51.350;17.286;2023-04-03T13:20:27;18.20;25.60
38020;DHT22;23829;51.350;17.286;2023-04-03T13:23:04;18.70;25.30
38020;DHT22;23829;51.350;17.286;2023-04-03T13:25:35;18.90;24.70
38020;DHT22;23829;51.350;17.286;2023-04-03T13:28:04;18.70;25.00
38020;DHT22;23829;51.350;17.286;2023-04-03T13:30:34;19.80;24.50
38020;DHT22;23829;51.350;17.286;2023-04-03T13:33:05;19.80;24.00
38020;DHT22;23829;51.350;17.286;2023-04-03T13:35:38;20.00;23.60
38020;DHT22;23829;51.350;17.286;2023-04-03T13:38:27;19.70;22.90
38020;DHT22;23829;51.350;17.286;2023-04-03T13:40:57;19.80;22.70
38020;DHT22;23829;51.350;17.286;2023-04-03T13:43:26;19.40;22.80
38020;DHT22;23829;51.350;17.286;2023-04-03T13:46:03;19.10;23.20
38020;DHT22;23829;51.350;17.286;2023-04-03T13:48:40;19.60;23.30
38020;DHT22;23829;51.350;17.286;2023-04-03T13:51:16;19.40;23.50
38020;DHT22;23829;51.350;17.286;2023-04-03T13:53:47;19.90;22.70
38020;DHT22;23829;51.350;17.286;2023-04-03T13:56:40;20.80;22.50
38020;DHT22;23829;51.350;17.286;2023-04-03T14:01:48;19.80;23.40
38020;DHT22;23829;51.350;17.286;2023-04-03T14:04:18;20.10;23.00
38020;DHT22;23829;51.350;17.286;2023-04-03T14:06:45;20.10;23.00
38020;DHT22;23829;51.350;17.286;2023-04-03T14:09:13;20.10;23.00
38020;DHT22;23829;51.350;17.286;2023-04-03T14:11:40;20.10;23.90
38020;DHT22;23829;51.350;17.286;2023-04-03T14:14:21;20.50;23.50
38020;DHT22;23829;51.350;17.286;2023-04-03T14:16:54;20.60;22.40
38020;DHT22;23829;51.350;17.286;2023-04-03T14:19:27;20.10;22.20
38020;DHT22;23829;51.350;17.286;2023-04-03T14:21:55;19.30;22.90
38020;DHT22;23829;51.350;17.286;2023-04-03T14:24:22;19.80;23.00
38020;DHT22;23829;51.350;17.286;2023-04-03T14:26:51;19.40;23.30
38020;DHT22;23829;51.350;17.286;2023-04-03T14:29:19;19.30;23.80
38020;DHT22;23829;51.350;17.286;2023-04-03T14:31:47;19.90;23.10
38020;DHT22;23829;51.350;17.286;2023-04-03T14:34:14;19.80;23.20
38020;DHT22;23829;51.350;17.286;2023-04-03T14:36:42;19.40;23.50
38020;DHT22;23829;51.350;17.286;2023-04-03T14:39:17;19.50;24.10
38020;DHT22;23829;51.350;17.286;2023-04-03T14:41:44;19.50;23.90
38020;DHT22;23829;51.350;17.286;2023-04-03T14:44:11;19.10;23.50
38020;DHT22;23829;51.350;17.286;2023-04-03T14:46:41;19.00;23.70
38020;DHT22;23829;51.350;17.286;2023-04-03T14:49:18;19.20;23.90
38020;DHT22;23829;51.350;17.286;2023-04-03T14:51:46;19.70;23.10
38020;DHT22;23829;51.350;17.286;2023-04-03T14:54:16;19.50;23.00
38020;DHT22;23829;51.350;17.286;2023-04-03T14:56:43;19.60;22.80
38020;DHT22;23829;51.350;17.286;2023-04-03T14:59:14;19.30;23.20
38020;DHT22;23829;51.350;17.286;2023-04-03T15:01:41;19.00;23.90
38020;DHT22;23829;51.350;17.286;2023-04-03T15:04:15;18.70;23.60
38020;DHT22;23829;51.350;17.286;2023-04-03T15:06:42;18.70;24.30
38020;DHT22;23829;51.350;17.286;2023-04-03T15:09:29;18.70;24.30
38020;DHT22;23829;51.350;17.286;2023-04-03T15:11:55;19.20;24.00
38020;DHT22;23829;51.350;17.286;2023-04-03T15:14:22;18.70;24.30
38020;DHT22;23829;51.350;17.286;2023-04-03T15:16:49;18.50;24.80
38020;DHT22;23829;51.350;17.286;2023-04-03T15:19:15;18.40;24.90
38020;DHT22;23829;51.350;17.286;2023-04-03T15:21:42;18.40;24.60
38020;DHT22;23829;51.350;17.286;2023-04-03T15:24:09;18.80;24.10
38020;DHT22;23829;51.350;17.286;2023-04-03T15:26:36;18.60;24.10
38020;DHT22;23829;51.350;17.286;2023-04-03T15:29:04;18.70;24.10
38020;DHT22;23829;51.350;17.286;2023-04-03T15:31:30;19.10;23.80
38020;DHT22;23829;51.350;17.286;2023-04-03T15:33:57;18.80;23.90
38020;DHT22;23829;51.350;17.286;2023-04-03T15:36:24;19.20;23.70
38020;DHT22;23829;51.350;17.286;2023-04-03T15:38:50;19.70;23.20
38020;DHT22;23829;51.350;17.286;2023-04-03T15:41:16;19.50;23.30
38020;DHT22;23829;51.350;17.286;2023-04-03T15:43:43;19.00;23.70
38020;DHT22;23829;51.350;17.286;2023-04-03T15:46:09;18.80;24.60
38020;DHT22;23829;51.350;17.286;2023-04-03T15:48:36;19.20;24.30
38020;DHT22;23829;51.350;17.286;2023-04-03T15:51:03;19.80;24.00
38020;DHT22;23829;51.350;17.286;2023-04-03T15:53:29;19.30;24.20
38020;DHT22;23829;51.350;17.286;2023-04-03T15:55:56;18.60;24.90
38020;DHT22;23829;51.350;17.286;2023-04-03T15:58:22;17.80;25.50
38020;DHT22;23829;51.350;17.286;2023-04-03T16:00:48;18.30;25.50
38020;DHT22;23829;51.350;17.286;2023-04-03T16:03:17;18.60;25.10
38020;DHT22;23829;51.350;17.286;2023-04-03T16:05:44;18.50;24.70
38020;DHT22;23829;51.350;17.286;2023-04-03T16:08:11;18.90;24.40
38020;DHT22;23829;51.350;17.286;2023-04-03T16:10:38;19.20;24.30
38020;DHT22;23829;51.350;17.286;2023-04-03T16:13:05;19.50;23.80
38020;DHT22;23829;51.350;17.286;2023-04-03T16:15:33;19.30;23.90
38020;DHT22;23829;51.350;17.286;2023-04-03T16:18:01;19.70;23.30
38020;DHT22;23829;51.350;17.286;2023-04-03T16:20:27;18.80;24.30
38020;DHT22;23829;51.350;17.286;2023-04-03T16:22:57;19.00;24.20
38020;DHT22;23829;51.350;17.286;2023-04-03T16:25:24;18.90;24.70
38020;DHT22;23829;51.350;17.286;2023-04-03T16:27:50;18.80;24.70
38020;DHT22;23829;51.350;17.286;2023-04-03T16:30:16;18.80;24.60
38020;DHT22;23829;51.350;17.286;2023-04-03T16:32:43;19.10;24.40
38020;DHT22;23829;51.350;17.286;2023-04-03T16:35:10;19.80;24.00
38020;DHT22;23829;51.350;17.286;2023-04-03T16:37:38;19.60;23.70
38020;DHT22;23829;51.350;17.286;2023-04-03T16:40:06;19.40;24.00
38020;DHT22;23829;51.350;17.286;2023-04-03T16:42:33;19.00;24.30
38020;DHT22;23829;51.350;17.286;2023-04-03T16:45:00;19.50;24.20
38020;DHT22;23829;51.350;17.286;2023-04-03T16:47:30;20.00;24.10
38020;DHT22;23829;51.350;17.286;2023-04-03T16:49:56;20.30;23.60
38020;DHT22;23829;51.350;17.286;2023-04-03T16:52:23;20.30;23.60
38020;DHT22;23829;51.350;17.286;2023-04-03T16:54:49;20.00;23.50
38020;DHT22;23829;51.350;17.286;2023-04-03T16:57:22;20.20;23.50